createdAt,value
2023-01-17T00:00:41.079Z,90.30
2023-01-17T00:04:01.546Z,90.30
2023-01-17T00:07:22.160Z,90.20
2023-01-17T00:10:26.449Z,90.00
2023-01-17T00:13:29.283Z,90.00
2023-01-17T00:16:33.532Z,90.20
2023-01-17T00:19:53.795Z,90.40
2023-01-17T00:23:14.004Z,90.30
2023-01-17T00:26:19.339Z,90.50
2023-01-17T00:29:21.093Z,91.30
2023-01-17T00:32:24.217Z,91.60
2023-01-17T00:35:27.848Z,92.00
2023-01-17T00:38:31.452Z,92.00
2023-01-17T00:41:33.181Z,92.00
2023-01-17T00:44:53.354Z,92.30
2023-01-17T00:48:15.194Z,92.60
2023-01-17T00:51:35.776Z,92.90
2023-01-17T00:54:56.147Z,93.00
2023-01-17T00:58:16.336Z,92.90
2023-01-17T01:01:36.604Z,92.60
2023-01-17T01:04:58.477Z,92.70
2023-01-17T01:08:19.003Z,92.70
2023-01-17T01:11:40.058Z,92.40
2023-01-17T01:15:00.711Z,92.30
2023-01-17T01:18:24.655Z,92.00
2023-01-17T01:21:46.399Z,92.20
2023-01-17T01:25:06.904Z,92.20
2023-01-17T01:28:30.939Z,92.50
2023-01-17T01:31:51.357Z,92.40
2023-01-17T01:34:54.201Z,92.10
2023-01-17T01:37:58.460Z,91.90
2023-01-17T01:41:01.339Z,92.00
2023-01-17T01:44:04.533Z,91.70
2023-01-17T01:47:07.380Z,91.30
2023-01-17T01:50:13.147Z,91.10
2023-01-17T01:53:18.835Z,90.90
2023-01-17T01:56:23.449Z,90.90
2023-01-17T01:59:26.819Z,90.60
2023-01-17T02:02:32.051Z,90.80
2023-01-17T02:05:36.313Z,90.40
2023-01-17T02:08:40.908Z,90.50
2023-01-17T02:11:44.829Z,90.40
2023-01-17T02:14:47.692Z,90.30
2023-01-17T02:18:01.024Z,90.60
2023-01-17T02:21:25.329Z,90.80
2023-01-17T02:24:58.146Z,90.80
2023-01-17T02:28:20.145Z,90.70
2023-01-17T02:31:32.483Z,91.10
2023-01-17T02:34:42.246Z,91.20
2023-01-17T02:37:57.230Z,91.50
2023-01-17T02:41:07.709Z,91.40
2023-01-17T02:44:11.988Z,91.40
2023-01-17T02:47:24.292Z,91.30
2023-01-17T02:50:36.718Z,91.30
2023-01-17T02:53:53.751Z,91.30
2023-01-17T02:57:12.700Z,91.70
2023-01-17T03:00:22.447Z,91.60
2023-01-17T03:03:34.377Z,91.40
2023-01-17T03:06:40.905Z,91.20
2023-01-17T03:09:45.871Z,91.00
2023-01-17T03:12:48.817Z,91.10
2023-01-17T03:15:51.721Z,91.10
2023-01-17T03:18:56.106Z,91.00
2023-01-17T03:21:58.973Z,91.00
2023-01-17T03:25:01.831Z,90.90
2023-01-17T03:28:04.925Z,90.70
2023-01-17T03:31:08.093Z,91.00
2023-01-17T03:34:12.243Z,90.40
2023-01-17T03:37:15.235Z,90.40
2023-01-17T03:40:18.504Z,90.40
2023-01-17T03:43:21.539Z,90.50
2023-01-17T03:46:25.712Z,90.50
2023-01-17T03:49:29.891Z,90.50
2023-01-17T03:52:32.775Z,90.40
2023-01-17T03:55:35.620Z,90.20
2023-01-17T03:58:38.487Z,90.00
2023-01-17T04:01:41.364Z,90.10
2023-01-17T04:04:45.565Z,90.00
2023-01-17T04:07:48.389Z,90.00
2023-01-17T04:10:51.253Z,90.00
2023-01-17T04:13:54.100Z,90.00
2023-01-17T04:16:57.337Z,90.00
2023-01-17T04:20:01.599Z,89.80
2023-01-17T04:23:04.557Z,89.70
2023-01-17T04:26:07.431Z,89.90
2023-01-17T04:29:10.295Z,90.40
2023-01-17T04:32:13.115Z,90.10
2023-01-17T04:35:17.846Z,90.00
2023-01-17T04:38:20.704Z,90.10
2023-01-17T04:41:23.534Z,90.20
2023-01-17T04:44:26.350Z,90.20
2023-01-17T04:47:29.231Z,90.30
2023-01-17T04:50:33.843Z,90.30
2023-01-17T04:53:36.671Z,90.30
2023-01-17T04:56:39.526Z,90.30
2023-01-17T04:59:42.409Z,90.20
2023-01-17T05:02:45.474Z,90.20
2023-01-17T05:05:49.972Z,90.10
2023-01-17T05:08:52.898Z,90.30
2023-01-17T05:11:55.927Z,90.40
2023-01-17T05:14:58.751Z,90.60
2023-01-17T05:18:01.600Z,90.50
2023-01-17T05:21:06.516Z,90.40
2023-01-17T05:24:09.463Z,90.50
2023-01-17T05:27:13.185Z,90.40
2023-01-17T05:30:16.299Z,90.70
2023-01-17T05:33:19.124Z,90.90
2023-01-17T05:36:23.669Z,91.10
2023-01-17T05:39:26.934Z,91.60
2023-01-17T05:42:29.815Z,91.60
2023-01-17T05:45:33.968Z,91.50
2023-01-17T05:48:37.066Z,91.40
2023-01-17T05:51:41.296Z,91.20
2023-01-17T05:54:44.145Z,91.20
2023-01-17T05:57:47.204Z,91.10
2023-01-17T06:00:50.433Z,91.00
2023-01-17T06:03:53.354Z,90.80
2023-01-17T06:06:57.511Z,90.70
2023-01-17T06:10:00.364Z,90.60
2023-01-17T06:13:05.777Z,90.70
2023-01-17T06:16:09.440Z,90.70
2023-01-17T06:19:12.264Z,90.50
2023-01-17T06:22:16.491Z,90.40
2023-01-17T06:25:19.312Z,90.60
2023-01-17T06:28:24.027Z,90.90
2023-01-17T06:31:26.979Z,90.80
2023-01-17T06:34:30.022Z,90.70
2023-01-17T06:37:34.241Z,90.80
2023-01-17T06:40:37.216Z,90.70
2023-01-17T06:43:40.025Z,90.60
2023-01-17T06:46:43.409Z,90.60
2023-01-17T06:49:46.341Z,90.40
2023-01-17T06:52:57.987Z,90.40
2023-01-17T06:56:00.841Z,90.30
2023-01-17T06:59:04.457Z,90.10
2023-01-17T07:02:07.292Z,90.20
2023-01-17T07:05:10.937Z,90.20
2023-01-17T07:08:16.934Z,90.20
2023-01-17T07:11:19.778Z,90.20
2023-01-17T07:14:22.592Z,90.30
2023-01-17T07:17:25.464Z,90.10
2023-01-17T07:20:28.390Z,90.00
2023-01-17T07:23:32.655Z,90.00
2023-01-17T07:26:37.686Z,90.20
2023-01-17T07:29:40.508Z,90.30
2023-01-17T07:32:43.354Z,90.20
2023-01-17T07:35:46.789Z,90.30
2023-01-17T07:38:50.935Z,90.70
2023-01-17T07:41:53.715Z,90.90
2023-01-17T07:44:56.556Z,91.00
2023-01-17T07:47:59.341Z,91.30
2023-01-17T07:51:02.195Z,91.20
2023-01-17T07:54:06.619Z,91.10
2023-01-17T07:57:12.752Z,91.00
2023-01-17T08:00:16.184Z,91.00
2023-01-17T08:03:19.372Z,90.90
2023-01-17T08:06:24.197Z,90.90
2023-01-17T08:09:28.399Z,90.70
2023-01-17T08:12:31.203Z,90.70
2023-01-17T08:15:34.069Z,90.70
2023-01-17T08:18:37.014Z,90.90
2023-01-17T08:21:39.829Z,90.90
2023-01-17T08:24:44.624Z,91.00
2023-01-17T08:27:47.457Z,90.90
2023-01-17T08:30:50.301Z,90.70
2023-01-17T08:33:53.154Z,91.00
2023-01-17T08:36:56.089Z,90.40
2023-01-17T08:40:00.710Z,90.30
2023-01-17T08:43:03.890Z,90.00
2023-01-17T08:46:06.958Z,90.00
2023-01-17T08:49:12.480Z,89.70
2023-01-17T08:52:15.594Z,89.60
2023-01-17T08:55:19.942Z,89.10
2023-01-17T08:58:23.301Z,89.20
2023-01-17T09:01:26.242Z,89.30
2023-01-17T09:04:29.321Z,88.90
2023-01-17T09:07:32.163Z,89.20
2023-01-17T09:10:36.346Z,88.60
2023-01-17T09:13:40.132Z,87.60
2023-01-17T09:16:43.059Z,87.70
2023-01-17T09:19:48.854Z,87.80
2023-01-17T09:22:52.220Z,86.90
2023-01-17T09:25:57.922Z,87.10
2023-01-17T09:29:00.801Z,86.20
2023-01-17T09:32:03.715Z,84.30
2023-01-17T09:35:08.688Z,84.40
2023-01-17T09:38:11.705Z,84.30
2023-01-17T09:41:34.534Z,83.90
2023-01-17T09:44:42.407Z,83.10
2023-01-17T09:47:47.511Z,81.70
2023-01-17T09:50:57.533Z,82.00
2023-01-17T09:54:02.388Z,81.50
2023-01-17T09:57:18.216Z,82.90
2023-01-17T10:00:41.874Z,82.10
2023-01-17T10:04:07.919Z,81.70
2023-01-17T10:07:20.587Z,82.40
2023-01-17T10:10:34.449Z,81.00
2023-01-17T10:13:48.108Z,80.00
2023-01-17T10:16:56.336Z,80.10
2023-01-17T10:20:13.516Z,78.60
2023-01-17T10:23:33.791Z,78.70
2023-01-17T10:26:38.557Z,78.00
2023-01-17T10:29:44.122Z,77.10
2023-01-17T10:32:50.554Z,75.30
2023-01-17T10:35:56.979Z,76.70
2023-01-17T10:39:03.379Z,76.40
2023-01-17T10:42:15.196Z,74.50
2023-01-17T10:45:25.658Z,75.10
2023-01-17T10:48:38.760Z,75.40
2023-01-17T10:52:00.142Z,75.80
2023-01-17T10:55:21.418Z,75.40
2023-01-17T10:58:25.691Z,76.30
2023-01-17T11:01:29.934Z,77.20
2023-01-17T11:04:36.490Z,74.30
2023-01-17T11:07:40.190Z,73.00
2023-01-17T11:10:46.385Z,71.30
2023-01-17T11:13:51.105Z,70.80
2023-01-17T11:17:03.555Z,72.40
2023-01-17T11:20:17.318Z,71.70
2023-01-17T11:23:23.622Z,70.00
2023-01-17T11:26:29.704Z,71.60
2023-01-17T11:29:36.818Z,71.90
2023-01-17T11:32:52.717Z,71.80
2023-01-17T11:35:55.586Z,71.10
2023-01-17T11:39:02.819Z,71.80
2023-01-17T11:42:07.612Z,71.50
2023-01-17T11:45:27.202Z,71.00
2023-01-17T11:48:38.004Z,69.70
2023-01-17T11:51:43.186Z,70.60
2023-01-17T11:54:47.620Z,69.50
2023-01-17T11:57:51.569Z,69.80
2023-01-17T12:01:07.462Z,69.80
2023-01-17T12:04:28.442Z,71.30
2023-01-17T12:07:43.747Z,70.40
2023-01-17T12:10:57.385Z,71.30
2023-01-17T12:14:11.310Z,71.50
2023-01-17T12:17:26.620Z,72.00
2023-01-17T12:20:38.542Z,71.70
2023-01-17T12:23:55.872Z,70.60
2023-01-17T12:27:04.907Z,72.10
2023-01-17T12:30:23.785Z,70.10
2023-01-17T12:33:35.432Z,71.00
2023-01-17T12:36:48.456Z,72.70
2023-01-17T12:39:59.017Z,72.60
2023-01-17T12:43:07.279Z,71.80
2023-01-17T12:46:20.704Z,72.20
2023-01-17T12:49:32.961Z,73.10
2023-01-17T12:52:49.746Z,73.30
2023-01-17T12:55:58.455Z,73.40
2023-01-17T12:59:09.835Z,72.30
2023-01-17T13:02:21.092Z,73.50
2023-01-17T13:05:28.928Z,72.20
2023-01-17T13:08:41.288Z,73.30
2023-01-17T13:11:49.944Z,72.50
2023-01-17T13:14:53.039Z,72.90
2023-01-17T13:18:03.751Z,72.80
2023-01-17T13:21:22.166Z,72.90
2023-01-17T13:24:39.394Z,72.90
2023-01-17T13:28:03.804Z,73.50
2023-01-17T13:31:26.705Z,74.20
2023-01-17T13:34:59.767Z,73.50
2023-01-17T13:38:22.475Z,73.60
2023-01-17T13:41:43.344Z,74.20
2023-01-17T13:44:47.384Z,75.20
2023-01-17T13:47:50.173Z,75.80
2023-01-17T13:50:58.248Z,75.20
2023-01-17T13:54:01.079Z,74.80
2023-01-17T13:57:40.014Z,74.70
2023-01-17T14:00:54.960Z,75.80
2023-01-17T14:04:04.946Z,75.60
2023-01-17T14:07:20.698Z,75.70
2023-01-17T14:10:33.736Z,75.20
2023-01-17T14:13:39.980Z,75.20
2023-01-17T14:16:45.507Z,75.90
2023-01-17T14:19:52.119Z,75.90
2023-01-17T14:22:57.370Z,76.10
2023-01-17T14:26:12.379Z,75.90
2023-01-17T14:30:04.771Z,76.00
2023-01-17T14:33:20.989Z,75.80
2023-01-17T14:36:30.363Z,75.80
2023-01-17T14:39:33.155Z,76.50
2023-01-17T14:42:36.827Z,77.90
2023-01-17T14:45:40.546Z,77.20
2023-01-17T14:48:45.599Z,77.50
2023-01-17T14:52:00.424Z,77.50
2023-01-17T14:55:14.579Z,78.20
2023-01-17T14:58:18.279Z,77.50
2023-01-17T15:01:21.861Z,78.20
2023-01-17T15:04:28.728Z,78.00
2023-01-17T15:07:32.322Z,78.10
2023-01-17T15:10:35.579Z,78.30
2023-01-17T15:13:44.861Z,77.90
2023-01-17T15:16:48.078Z,78.70
2023-01-17T15:19:57.548Z,78.50
2023-01-17T15:23:00.587Z,79.30
2023-01-17T15:26:05.426Z,79.40
2023-01-17T15:29:15.753Z,79.50
2023-01-17T15:32:22.433Z,79.80
2023-01-17T15:35:28.266Z,80.10
2023-01-17T15:38:38.534Z,80.30
2023-01-17T15:41:41.920Z,80.20
2023-01-17T15:44:49.432Z,81.00
2023-01-17T15:47:52.505Z,80.80
2023-01-17T15:51:00.134Z,80.80
2023-01-17T15:54:32.105Z,81.20
2023-01-17T15:57:37.012Z,80.60
2023-01-17T16:00:41.981Z,80.40
2023-01-17T16:03:54.458Z,80.00
2023-01-17T16:07:10.598Z,80.60
2023-01-17T16:10:18.709Z,80.20
2023-01-17T16:13:21.903Z,80.20
2023-01-17T16:16:26.700Z,81.20
2023-01-17T16:19:30.076Z,81.20
2023-01-17T16:22:34.289Z,81.20
2023-01-17T16:25:37.163Z,81.70
2023-01-17T16:28:40.017Z,81.80
2023-01-17T16:31:42.867Z,81.70
2023-01-17T16:34:45.689Z,82.00
2023-01-17T16:37:51.771Z,82.30
2023-01-17T16:40:55.048Z,82.70
2023-01-17T16:44:00.401Z,83.10
2023-01-17T16:47:03.626Z,83.50
2023-01-17T16:50:07.470Z,82.70
2023-01-17T16:53:11.792Z,82.90
2023-01-17T16:56:16.978Z,83.20
2023-01-17T16:59:19.788Z,83.30
2023-01-17T17:02:23.078Z,83.00
2023-01-17T17:05:26.763Z,82.70
2023-01-17T17:08:33.854Z,83.20
2023-01-17T17:11:36.696Z,82.80
2023-01-17T17:14:39.499Z,83.10
2023-01-17T17:17:44.106Z,83.30
2023-01-17T17:20:47.904Z,82.90
2023-01-17T17:23:56.823Z,83.50
2023-01-17T17:26:59.713Z,83.10
2023-01-17T17:30:02.527Z,83.10
2023-01-17T17:33:05.512Z,83.10
2023-01-17T17:36:10.940Z,82.80
2023-01-17T17:39:15.739Z,83.40
2023-01-17T17:42:19.943Z,83.50
2023-01-17T17:45:22.797Z,83.90
2023-01-17T17:48:25.636Z,83.40
2023-01-17T17:51:31.400Z,83.90
2023-01-17T17:54:36.341Z,84.20
2023-01-17T17:57:39.191Z,83.50
2023-01-17T18:00:41.992Z,84.20
2023-01-17T18:03:44.849Z,84.60
2023-01-17T18:06:47.681Z,84.10
2023-01-17T18:09:51.819Z,85.00
2023-01-17T18:12:54.795Z,84.80
2023-01-17T18:16:07.543Z,84.70
2023-01-17T18:19:14.237Z,84.50
2023-01-17T18:22:17.042Z,84.40
2023-01-17T18:25:21.234Z,84.90
2023-01-17T18:28:24.344Z,84.90
2023-01-17T18:31:28.959Z,84.90
2023-01-17T18:34:33.686Z,84.50
2023-01-17T18:37:36.505Z,84.60
2023-01-17T18:40:40.639Z,85.00
2023-01-17T18:43:43.782Z,85.10
2023-01-17T18:46:47.922Z,84.30
2023-01-17T18:49:53.557Z,84.30
2023-01-17T18:52:56.699Z,85.00
2023-01-17T18:56:02.282Z,84.30
2023-01-17T18:59:06.978Z,84.10
2023-01-17T19:02:10.420Z,84.50
2023-01-17T19:05:14.729Z,84.30
2023-01-17T19:08:17.824Z,83.90
2023-01-17T19:11:23.985Z,83.40
2023-01-17T19:14:26.953Z,83.80
2023-01-17T19:17:29.841Z,84.20
2023-01-17T19:20:34.782Z,84.40
2023-01-17T19:23:38.762Z,84.00
2023-01-17T19:26:43.057Z,85.00
2023-01-17T19:29:45.888Z,85.80
2023-01-17T19:32:51.079Z,85.70
2023-01-17T19:35:53.873Z,85.20
2023-01-17T19:39:04.929Z,85.60
2023-01-17T19:42:15.364Z,85.30
2023-01-17T19:45:18.416Z,85.10
2023-01-17T19:48:22.502Z,84.40
2023-01-17T19:51:26.722Z,84.60
2023-01-17T19:54:29.545Z,85.20
2023-01-17T19:57:35.325Z,84.80
2023-01-17T20:00:46.245Z,85.40
2023-01-17T20:03:50.661Z,85.50
2023-01-17T20:06:54.677Z,85.30
2023-01-17T20:09:57.861Z,85.20
2023-01-17T20:13:02.066Z,85.10
2023-01-17T20:16:06.269Z,85.80
2023-01-17T20:19:09.093Z,86.50
2023-01-17T20:22:11.902Z,86.00
2023-01-17T20:25:15.021Z,86.30
2023-01-17T20:28:19.203Z,86.20
2023-01-17T20:31:24.323Z,86.10
2023-01-17T20:34:27.396Z,86.00
2023-01-17T20:37:30.181Z,86.20
2023-01-17T20:40:33.018Z,85.80
2023-01-17T20:43:37.762Z,85.90
2023-01-17T20:46:41.768Z,86.00
2023-01-17T20:49:44.607Z,86.00
2023-01-17T20:52:48.209Z,86.20
2023-01-17T20:55:57.282Z,86.40
2023-01-17T20:59:03.598Z,86.50
2023-01-17T21:02:09.901Z,86.40
2023-01-17T21:05:12.979Z,86.40
2023-01-17T21:08:18.398Z,86.50
2023-01-17T21:11:23.632Z,86.90
2023-01-17T21:14:28.067Z,87.50
2023-01-17T21:17:30.872Z,87.40
2023-01-17T21:20:36.372Z,87.40
2023-01-17T21:23:41.165Z,87.80
2023-01-17T21:26:45.665Z,88.20
2023-01-17T21:29:49.976Z,88.00
2023-01-17T21:32:52.883Z,87.90
2023-01-17T21:35:55.716Z,88.40
2023-01-17T21:39:04.229Z,88.70
2023-01-17T21:42:07.092Z,88.30
2023-01-17T21:45:12.608Z,88.70
2023-01-17T21:48:15.427Z,88.50
2023-01-17T21:51:19.455Z,88.70
2023-01-17T21:54:42.941Z,88.60
2023-01-17T21:58:03.192Z,88.60
2023-01-17T22:01:17.531Z,89.00
2023-01-17T22:04:20.423Z,88.30
2023-01-17T22:07:25.171Z,88.40
2023-01-17T22:10:28.057Z,88.40
2023-01-17T22:13:32.484Z,88.90
2023-01-17T22:16:36.689Z,88.40
2023-01-17T22:19:39.515Z,88.20
2023-01-17T22:22:42.413Z,89.10
2023-01-17T22:25:45.594Z,89.30
2023-01-17T22:28:48.852Z,89.20
2023-01-17T22:31:53.007Z,89.10
2023-01-17T22:34:55.812Z,89.30
2023-01-17T22:37:58.677Z,89.10
2023-01-17T22:41:07.907Z,89.20
2023-01-17T22:44:11.212Z,89.70
2023-01-17T22:47:15.427Z,89.80
2023-01-17T22:50:18.625Z,89.60
2023-01-17T22:53:21.576Z,89.30
2023-01-17T22:56:26.437Z,89.30
2023-01-17T22:59:29.249Z,89.10
2023-01-17T23:02:33.440Z,89.80
2023-01-17T23:05:46.996Z,89.50
2023-01-17T23:08:51.656Z,89.50
2023-01-17T23:11:55.243Z,89.80
2023-01-17T23:15:15.456Z,89.60
2023-01-17T23:18:37.277Z,89.30
2023-01-17T23:21:56.644Z,89.30
2023-01-17T23:25:01.493Z,89.20
2023-01-17T23:28:12.126Z,89.50
2023-01-17T23:31:14.981Z,89.50
2023-01-17T23:34:19.129Z,89.70
2023-01-17T23:37:21.962Z,89.60
2023-01-17T23:40:24.917Z,89.10
2023-01-17T23:43:26.747Z,88.50
2023-01-17T23:46:30.228Z,88.40
2023-01-17T23:49:34.479Z,88.10
2023-01-17T23:52:37.359Z,88.20
2023-01-17T23:55:42.093Z,87.90
2023-01-17T23:58:45.144Z,88.00
